Departure ICAO
Arrival ICAO

The revolutionary moving map for travelling passengers has finally arrived
More information here

LFMD Cannes Mandelieu - EGKB London Biggin Hill


Distance 545 NM


LFMN Nice Cote D'Azur VFR

METAR LFMN 160400Z 33011KT 9999 SCT050 06/M03 Q1020 NOSIG

TAF LFMN 160200Z 1603/1709 32010KT CAVOK TEMPO 1603/1615 BKN033 BECMG 1612/1614 14010KT BECMG 1616/1618 34010KT TEMPO 1618/1709 BKN030


LFMD Cannes Mandelieu VFR

METAR LFMD 160400Z AUTO VRB05KT 9999 FEW029 BKN058 05/01 Q1020 NOSIG

TAF LFMD 160200Z 1603/1703 VRB03KT CAVOK TEMPO 1603/1615 BKN033 BECMG 1612/1614 14010KT BECMG 1616/1618 34010KT TEMPO 1618/1703 BKN030


LFLB Chambery Aix Les Bains VFR

METAR LFLB 160400Z AUTO 17002KT 5000 BR NSC M04/M04 Q1020

TAF LFLB 151700Z 1518/1618 VRB02KT CAVOK PROB40 TEMPO 1600/1609 2000 BR BKN012 PROB30 TEMPO 1603/1607 0800 BCFG OVC005


LFLS Grenoble Saint Geoirs VFR CAVOK

METAR LFLS 160400Z AUTO 08009KT CAVOK M03/M05 Q1019 TEMPO 3000 BR

TAF LFLS 160200Z 1603/1703 09005KT CAVOK PROB40 TEMPO 1603/1607 3000 BR BECMG 1610/1612 22010KT PROB30 TEMPO 1612/1618 20015G25KT


LFLL Lyon Saint Exupery VFR

METAR LFLL 160400Z 15007KT 8000 NSC M01/M01 Q1019 NOSIG

TAF LFLL 152300Z 1600/1706 15005KT CAVOK PROB40 TEMPO 1601/1604 0500 BCFG PROB30 TEMPO 1604/1607 0300 FZFG VV/// BECMG 1608/1610 18012KT TEMPO 1613/1624 18015G25KT PROB40 TEMPO 1614/1621 18020G35KT BECMG 1704/1706 OVC050


LFLY Lyon Bron VFR

METAR LFLY 160400Z AUTO 10002KT 6000 NSC M02/M04 Q1019 TEMPO 0400 BCFG

TAF LFLY 152300Z 1600/1624 VRB02KT CAVOK TEMPO 1600/1607 4000 BR PROB30 TEMPO 1603/1607 0400 BCFG BECMG 1609/1611 18010KT TEMPO 1613/1618 18018G28KT


LFLN Saint Yan VFR

METAR LFLN 160400Z AUTO VRB01KT 9000 NSC M03/M03 Q1017

TAF LFLN 151636Z 1518/1603 VRB03KT 9999 BKN030 PROB30 TEMPO 1600/1603 3000 BR NSC


LFPM Melun Villaroche VFR CAVOK

METAR LFPM 160400Z AUTO 17003KT CAVOK M00/M01 Q1016


LFPO Paris Orly VFR CAVOK

METAR LFPO 160400Z 20003KT CAVOK 02/M00 Q1016 NOSIG

TAF LFPO 152300Z 1600/1706 21005KT 9999 SCT025 BECMG 1617/1619 21010G20KT BKN012 TEMPO 1619/1624 4000 -RA BKN008 PROB40 TEMPO 1701/1706 CAVOK


LFPG Paris Charles De Gaulle VFR

METAR LFPG 160400Z 20006KT 9999 FEW033 SCT170 03/00 Q1016 NOSIG

TAF AMD LFPG 152332Z 1600/1706 22005KT 9999 OVC025 TX07/1615Z TN03/1606Z BECMG 1618/1620 BKN014 TEMPO 1620/1624 4000 -RADZ BKN010 BECMG 1700/1702 BKN030


LFPB Paris Le Bourget VFR CAVOK

METAR LFPB 160400Z AUTO 23003KT CAVOK 04/M00 Q1016 NOSIG

TAF LFPB 152300Z 1600/1624 22005KT 9999 OVC025 BECMG 1618/1620 BKN014 TEMPO 1620/1624 4000 -RADZ BKN010


LFPV Villacoublay Velizy VFR CAVOK

METAR LFPV 160400Z AUTO VRB02KT CAVOK 02/00 Q1016 NOSIG

TAF LFPV 160200Z 1603/1703 22005KT 9999 OVC025 BECMG 1616/1617 BKN015 TEMPO 1619/1622 4500 -RA OVC008 PROB40 TEMPO 1620/1623 OVC005 BECMG 1701/1702 CAVOK


LFPN Toussous Le Noble VFR CAVOK

METAR LFPN 160400Z AUTO 00000KT CAVOK M00/M03 Q1016

TAF LFPN 151700Z 1518/1603 20004KT 9999 BKN030


LFPT Pontoise Cormeilles En Vexin VFR CAVOK

METAR LFPT 160400Z AUTO 18003KT CAVOK 03/00 Q1015


LFOB Beauvais Tille VFR

METAR LFOB 160400Z AUTO 21009KT 9999 OVC018 05/02 Q1015 NOSIG

TAF LFOB 152300Z 1600/1624 21012KT 9999 BKN025 BECMG 1618/1620 3000 RA BKN006 OVC013 BECMG 1620/1622 27012KT 9999 SCT025


LFAT Le Tourquet Paris Plage VFR

METAR LFAT 160400Z AUTO 22010KT 190V250 9999 OVC015 07/05 Q1013

TAF LFAT 151400Z 1515/1524 26010KT 9999 SCT010 OVC025 TEMPO 1515/1521 2000 -RA BKN005 OVC015


EGMD Lydd VFR

METAR EGMD 160350Z AUTO 23020KT 9999 SCT012/// BKN019/// OVC024/// 08/07 Q1012

TAF EGMD 160206Z 1603/1612 23015KT 9999 BKN015 TEMPO 1603/1612 8000 -RADZ BKN008 PROB30 TEMPO 1603/1612 23020G30KT 4000 RADZ BKN004


EGKK London Gatwick IFR CAT I

METAR EGKK 160350Z 21010KT 7000 -DZ BKN008 08/07 Q1011

TAF AMD EGKK 160132Z 1601/1706 22007KT 9999 FEW008 BKN028 TEMPO 1601/1609 8000 -RADZ BKN006 PROB30 TEMPO 1601/1609 4000 RADZ TEMPO 1609/1616 BKN010 PROB40 TEMPO 1609/1616 23016G26KT 4000 RADZ BKN008 BECMG 1616/1619 28010KT FEW025


EGLC London City VFR

METAR EGLC 160350Z AUTO 23010KT 9999 BKN015 09/06 Q1010

TAF EGLC 160206Z 1603/1612 24012KT 9999 BKN025 TEMPO 1603/1609 BKN010 PROB40 TEMPO 1609/1612 23015G25KT 7000 -RADZ BKN008


EGSS London Stansted VFR

METAR EGSS 160350Z AUTO 22010KT 9999 OVC011 08/06 Q1009

TAF EGSS 152258Z 1600/1706 23010KT 9999 SCT035 TEMPO 1600/1613 7000 -RADZ BKN008 PROB30 TEMPO 1606/1613 22015G25KT 4000 RADZ BKN004 TEMPO 1613/1616 26015G25KT 6000 RA BKN010 PROB30 TEMPO 1613/1616 3000 +RA BKN006 PROB30 TEMPO 1621/1706 7000 SHRA BKN012 BECMG 1700/1703 29012KT


EGLL London Heathrow VFR

METAR EGLL 160350Z AUTO 22011KT 9999 BKN013 09/07 Q1010 NOSIG

TAF EGLL 152302Z 1600/1706 22012KT 9999 BKN030 TEMPO 1600/1616 BKN012 PROB40 TEMPO 1607/1616 4000 RADZ BKN008 TEMPO 1610/1616 23016G26KT BECMG 1615/1618 28010KT FEW030


EGWU Northolt VFR

METAR EGWU 160350Z AUTO 23010KT 9999 // BKN013/// BKN034/// 09/06 Q1009

TAF EGWU 151940Z 1521/1615 23010KT 9999 FEW015 BKN030 TEMPO 1521/1524 SCT014 BECMG 1600/1603 BKN012 TEMPO 1609/1615 21015G25KT 4000 -RADZ



NOTAMS LFMD

 NOTAMS EGKB